Time;durP1;ratioP1;P1;durP2;ratioP2;P2;SDS_P1;SDS_P2;PMS_P1;PMS_P2;Temp;Humidity;BMP_temperature;BMP_pressure;BME280_temperature;BME280_humidity;BME280_pressure;Samples;Min_cycle;Max_cycle;Signal;HPM_P1;HPM_P2
2022/06/09 00:01:08;;;;;;;2.37;1.83;;;;;;;19.25;77.60;93921.84;2617176;47;20230;-81
2022/06/09 00:03:42;;;;;;;1.90;1.73;;;;;;;19.56;74.67;93908.53;2617323;47;20176;-81
2022/06/09 00:06:12;;;;;;;1.77;1.67;;;;;;;19.48;72.66;93869.13;2617441;54;20199;-82
2022/06/09 00:08:45;;;;;;;3.80;2.40;;;;;;;19.99;72.20;93914.38;2617182;54;20152;-82
2022/06/09 00:11:19;;;;;;;1.55;1.45;;;;;;;19.98;72.08;93909.38;2616916;54;20183;-81
2022/06/09 00:13:47;;;;;;;1.40;1.30;;;;;;;19.91;71.51;93888.66;2616951;54;20169;-81
2022/06/09 00:16:17;;;;;;;1.60;1.50;;;;;;;20.21;70.47;93899.66;2617075;54;20212;-81
2022/06/09 00:18:48;;;;;;;1.55;1.45;;;;;;;20.25;69.92;93896.00;2617071;47;20160;-82
2022/06/09 00:21:16;;;;;;;1.42;1.42;;;;;;;20.30;69.42;93897.34;2616788;47;20204;-82
2022/06/09 00:23:45;;;;;;;1.42;1.42;;;;;;;20.39;69.89;93906.56;2616931;47;20169;-82
2022/06/09 00:26:14;;;;;;;1.42;1.33;;;;;;;20.21;70.60;93908.28;2617380;54;20149;-82
2022/06/09 00:28:42;;;;;;;1.88;1.77;;;;;;;19.83;72.46;93898.09;2618064;47;20153;-82
2022/06/09 00:31:11;;;;;;;1.45;1.35;;;;;;;19.30;74.24;93888.75;2617469;54;20169;-82
2022/06/09 00:33:40;;;;;;;1.63;1.53;;;;;;;18.56;76.55;93893.91;2618165;54;20153;-82
2022/06/09 00:36:12;;;;;;;1.70;1.60;;;;;;;18.20;79.92;93903.53;2617864;47;20184;-82
2022/06/09 00:38:40;;;;;;;1.80;1.70;;;;;;;17.79;80.11;93888.84;2618092;47;20164;-81
2022/06/09 00:41:09;;;;;;;5.13;2.13;;;;;;;17.11;83.79;93871.34;2617987;47;20200;-81
2022/06/09 00:43:38;;;;;;;2.20;2.10;;;;;;;17.00;85.33;93872.81;2617963;47;20212;-81
2022/06/09 00:46:16;;;;;;;2.10;2.00;;;;;;;16.97;85.79;93872.13;2617555;54;20165;-82
2022/06/09 00:48:49;;;;;;;3.23;2.13;;;;;;;17.47;85.60;93896.19;2618025;47;20248;-82
2022/06/09 00:51:40;;;;;;;1.90;1.67;;;;;;;17.51;86.04;93895.44;2617718;47;20276;-81
2022/06/09 00:54:14;;;;;;;2.10;2.00;;;;;;;17.44;84.53;93863.28;2618314;39;20562;-82
2022/06/09 00:56:48;;;;;;;4.27;2.10;;;;;;;17.71;84.04;93893.19;2617212;47;20675;-81
2022/06/09 00:59:20;;;;;;;1.73;1.63;;;;;;;18.07;81.73;93892.19;2617954;54;20167;-82
2022/06/09 01:01:49;;;;;;;1.80;1.70;;;;;;;18.22;81.00;93883.47;2618169;39;20541;-82
2022/06/09 01:04:20;;;;;;;1.77;1.67;;;;;;;18.25;79.96;93848.34;2617964;54;20176;-82
2022/06/09 01:06:55;;;;;;;2.33;2.23;;;;;;;19.03;76.88;93888.38;2617772;54;20175;-81
2022/06/09 01:09:26;;;;;;;2.60;2.40;;;;;;;18.16;77.44;93844.13;2617816;47;20787;-81
2022/06/09 01:11:57;;;;;;;3.03;2.10;;;;;;;18.25;79.34;93885.59;2617256;54;20203;-81
2022/06/09 01:14:29;;;;;;;1.73;1.63;;;;;;;18.94;77.25;93901.41;2618049;47;20676;-80
2022/06/09 01:17:09;;;;;;;3.50;2.33;;;;;;;18.65;77.35;93887.38;2617755;47;20184;-82
2022/06/09 01:19:58;;;;;;;2.70;2.50;;;;;;;18.30;78.14;93861.19;2617932;54;20184;-82
2022/06/09 01:23:01;;;;;;;4.70;2.60;;;;;;;18.06;80.09;93887.91;2617732;47;20172;-80
2022/06/09 01:25:52;;;;;;;2.70;2.50;;;;;;;17.87;79.69;93891.66;2617391;47;20767;-82
2022/06/09 01:28:49;;;;;;;2.63;2.43;;;;;;;17.47;81.35;93876.16;2617829;54;20176;-82
2022/06/09 01:31:28;;;;;;;3.73;2.13;;;;;;;16.85;82.48;93812.13;2617704;54;20280;-80
2022/06/09 01:34:05;;;;;;;5.67;3.00;;;;;;;17.11;83.62;93854.16;2617659;47;20692;-80
2022/06/09 01:36:40;;;;;;;2.20;1.87;;;;;;;17.38;84.36;93849.72;2617812;54;20141;-82
2022/06/09 01:39:09;;;;;;;1.80;1.70;;;;;;;17.52;82.88;93833.88;2617473;54;20683;-82
2022/06/09 01:41:39;;;;;;;2.60;2.40;;;;;;;17.45;82.67;93821.78;2618169;39;20672;-82
2022/06/09 01:44:08;;;;;;;2.53;2.40;;;;;;;17.46;83.07;93862.56;2617973;54;20137;-82
2022/06/09 01:46:39;;;;;;;2.97;2.70;;;;;;;17.02;83.08;93829.91;2617733;54;20160;-80
2022/06/09 01:49:13;;;;;;;2.33;2.13;;;;;;;17.12;83.18;93852.72;2617910;47;20195;-81
2022/06/09 01:51:45;;;;;;;3.83;2.50;;;;;;;16.83;83.73;93835.00;2617817;54;20192;-82
2022/06/09 01:54:19;;;;;;;2.57;2.20;;;;;;;16.99;84.60;93859.94;2617035;47;20204;-82
2022/06/09 01:56:52;;;;;;;3.30;3.10;;;;;;;17.49;84.03;93878.28;2617115;47;20707;-82
2022/06/09 01:59:24;;;;;;;1.97;1.87;;;;;;;17.46;84.14;93851.81;2617558;47;20153;-81
2022/06/09 02:01:58;;;;;;;2.40;2.27;;;;;;;18.24;79.67;93844.03;2617406;54;20160;-81
2022/06/09 02:04:32;;;;;;;3.40;3.10;;;;;;;18.78;77.39;93876.47;2617456;47;20191;-81
2022/06/09 02:07:04;;;;;;;3.60;3.30;;;;;;;19.11;75.20;93868.91;2617425;54;20173;-82
2022/06/09 02:09:34;;;;;;;3.30;3.00;;;;;;;19.07;74.54;93889.06;2617326;47;20276;-82
2022/06/09 02:12:09;;;;;;;2.13;1.97;;;;;;;18.73;73.87;93850.00;2617481;54;20168;-82
2022/06/09 02:14:39;;;;;;;3.03;2.20;;;;;;;19.08;74.04;93861.78;2617265;54;20140;-81
2022/06/09 02:17:11;;;;;;;2.23;2.13;;;;;;;19.25;73.52;93879.50;2617561;54;20142;-81
2022/06/09 02:19:41;;;;;;;3.33;3.10;;;;;;;19.15;73.20;93860.25;2617447;47;20223;-81
2022/06/09 02:22:13;;;;;;;4.93;2.63;;;;;;;19.16;72.85;93861.66;2617605;47;20221;-82
2022/06/09 02:24:42;;;;;;;3.27;2.97;;;;;;;19.32;74.29;93880.13;2617559;54;20137;-81
2022/06/09 02:27:11;;;;;;;2.43;2.30;;;;;;;19.24;73.88;93860.16;2617244;54;20251;-81
2022/06/09 02:29:39;;;;;;;3.03;2.83;;;;;;;19.32;73.08;93872.22;2617329;47;20172;-81
2022/06/09 02:32:11;;;;;;;4.13;3.73;;;;;;;19.06;72.59;93861.78;2617233;54;20196;-80
2022/06/09 02:34:40;;;;;;;3.63;3.30;;;;;;;19.38;71.88;93888.66;2617436;54;20180;-81
2022/06/09 02:37:08;;;;;;;4.00;3.13;;;;;;;19.48;72.94;93891.41;2617231;54;20195;-81
2022/06/09 02:39:37;;;;;;;2.37;2.20;;;;;;;19.68;71.44;93899.06;2617408;47;20245;-81
2022/06/09 02:42:07;;;;;;;3.03;2.73;;;;;;;19.70;72.36;93891.09;2617210;47;20180;-81
2022/06/09 02:44:36;;;;;;;2.90;2.70;;;;;;;19.67;71.56;93877.53;2617486;47;20174;-81
2022/06/09 02:47:05;;;;;;;3.00;2.72;;;;;;;19.78;71.31;93905.34;2616984;47;20203;-81
2022/06/09 02:49:37;;;;;;;3.83;2.93;;;;;;;19.73;71.80;93877.41;2617098;54;20192;-81
2022/06/09 02:52:06;;;;;;;3.05;2.85;;;;;;;20.16;69.78;93901.19;2617455;54;20160;-81
2022/06/09 02:54:35;;;;;;;3.20;3.00;;;;;;;20.15;69.15;93899.03;2617234;54;20214;-81
2022/06/09 02:57:05;;;;;;;4.45;2.60;;;;;;;20.21;69.26;93891.03;2617128;47;20711;-81
2022/06/09 02:59:33;;;;;;;4.18;3.00;;;;;;;19.96;69.18;93854.78;2617574;39;20913;-81
2022/06/09 03:02:02;;;;;;;3.65;3.35;;;;;;;20.08;69.39;93866.81;2617402;54;20145;-81
2022/06/09 03:04:31;;;;;;;2.95;2.75;;;;;;;20.22;67.84;93880.97;2617345;47;20330;-81
2022/06/09 03:07:02;;;;;;;2.75;2.55;;;;;;;19.74;68.45;93809.91;2617360;54;20240;-82
2022/06/09 03:09:31;;;;;;;3.60;3.30;;;;;;;20.14;68.62;93883.25;2617228;54;20145;-82
2022/06/09 03:11:59;;;;;;;4.72;2.42;;;;;;;20.12;69.62;93909.84;2617927;39;20607;-82
2022/06/09 03:14:28;;;;;;;4.00;3.63;;;;;;;19.81;69.32;93852.16;2617224;54;20148;-82
2022/06/09 03:16:57;;;;;;;2.78;2.58;;;;;;;19.93;69.14;93854.13;2617348;46;20177;-81
2022/06/09 03:19:26;;;;;;;3.88;2.88;;;;;;;20.01;68.56;93856.88;2617150;54;20181;-81
2022/06/09 03:21:54;;;;;;;3.70;3.33;;;;;;;19.65;68.95;93838.03;2617488;47;20161;-82
2022/06/09 03:24:26;;;;;;;4.05;3.55;;;;;;;18.87;71.96;93797.47;2617694;39;20584;-82
2022/06/09 03:26:54;;;;;;;4.43;3.42;;;;;;;18.85;73.08;93900.09;2617136;54;20211;-82
2022/06/09 03:29:23;;;;;;;3.87;3.53;;;;;;;17.31;79.34;93879.09;2617298;47;20193;-82
2022/06/09 03:31:52;;;;;;;3.70;3.43;;;;;;;16.74;82.19;93893.66;2617004;47;20169;-81
2022/06/09 03:34:21;;;;;;;3.80;3.50;;;;;;;16.28;85.06;93872.31;2617316;47;20343;-80
2022/06/09 03:36:50;;;;;;;4.43;3.47;;;;;;;16.41;83.89;93875.13;2617046;54;20189;-80
2022/06/09 03:39:18;;;;;;;3.57;3.37;;;;;;;16.43;83.10;93887.28;2617202;54;20168;-80
2022/06/09 03:41:50;;;;;;;4.20;3.50;;;;;;;16.25;85.47;93878.75;2617050;54;20256;-81
2022/06/09 03:44:19;;;;;;;4.10;3.70;;;;;;;16.69;86.86;93887.22;2617227;54;20168;-82
2022/06/09 03:46:47;;;;;;;3.90;3.57;;;;;;;16.68;86.38;93867.94;2617122;47;20252;-81
2022/06/09 03:49:16;;;;;;;3.87;3.07;;;;;;;17.17;84.15;93890.63;2617153;47;20168;-81
2022/06/09 03:51:45;;;;;;;3.87;3.33;;;;;;;17.63;82.51;93896.09;2617002;54;20161;-80
2022/06/09 03:54:14;;;;;;;3.43;3.13;;;;;;;17.94;81.40;93885.13;2616998;47;20169;-81
2022/06/09 03:56:43;;;;;;;6.93;3.27;;;;;;;17.83;79.31;93860.88;2617110;54;20153;-81
2022/06/09 03:59:14;;;;;;;4.40;3.53;;;;;;;18.58;78.50;93905.38;2616887;54;20177;-82
2022/06/09 04:01:43;;;;;;;3.90;3.45;;;;;;;18.96;74.27;93864.81;2617544;54;20268;-82
2022/06/09 04:04:12;;;;;;;6.38;4.72;;;;;;;19.26;73.38;93868.72;2617725;47;20157;-82
2022/06/09 04:06:41;;;;;;;4.10;3.80;;;;;;;19.69;72.46;93891.84;2617901;47;20173;-81
2022/06/09 04:09:10;;;;;;;6.18;4.63;;;;;;;19.46;70.87;93879.94;2617267;54;20161;-81
2022/06/09 04:11:38;;;;;;;5.28;4.75;;;;;;;19.31;71.79;93876.53;2617696;47;20173;-80
2022/06/09 04:14:07;;;;;;;9.97;6.03;;;;;;;19.46;71.77;93891.41;2617964;47;20195;-80
2022/06/09 04:16:40;;;;;;;6.88;6.18;;;;;;;19.12;70.47;93841.63;2617602;47;20264;-81
2022/06/09 04:19:10;;;;;;;6.88;5.60;;;;;;;19.16;71.81;93820.75;2617915;54;20284;-81
2022/06/09 04:21:40;;;;;;;14.20;8.70;;;;;;;19.58;70.77;93888.41;2617689;47;20428;-81
2022/06/09 04:24:09;;;;;;;15.50;10.02;;;;;;;19.54;70.39;93861.91;2617020;54;20416;-81
2022/06/09 04:26:40;;;;;;;10.23;8.77;;;;;;;19.64;69.86;93861.75;2617708;46;20268;-81
2022/06/09 04:29:11;;;;;;;8.85;6.53;;;;;;;19.63;69.27;93877.56;2617440;54;20176;-81
2022/06/09 04:31:45;;;;;;;10.82;6.65;;;;;;;19.63;70.32;93886.91;2617573;54;20185;-82
2022/06/09 04:34:14;;;;;;;7.63;5.90;;;;;;;19.67;71.15;93880.41;2617688;47;20176;-83
2022/06/09 04:36:42;;;;;;;8.77;6.63;;;;;;;19.82;69.96;93893.78;2617282;54;20165;-81
2022/06/09 04:39:12;;;;;;;6.40;5.82;;;;;;;19.41;70.64;93836.19;2617172;47;20268;-82
2022/06/09 04:41:41;;;;;;;7.37;5.13;;;;;;;19.47;69.82;93884.22;2617611;46;20168;-81
2022/06/09 04:44:10;;;;;;;8.55;6.30;;;;;;;19.58;70.11;93893.44;2617595;54;20439;-81
2022/06/09 04:46:38;;;;;;;6.03;5.22;;;;;;;19.59;71.94;93895.56;2617647;54;20149;-81
2022/06/09 04:49:10;;;;;;;5.70;5.20;;;;;;;19.37;71.08;93838.44;2617883;54;20184;-80
2022/06/09 04:51:39;;;;;;;5.87;5.37;;;;;;;19.47;72.27;93895.72;2617134;54;20164;-81
2022/06/09 04:54:07;;;;;;;8.20;5.77;;;;;;;19.44;72.98;93889.28;2618076;31;20632;-82
2022/06/09 04:56:36;;;;;;;9.93;5.07;;;;;;;19.63;72.41;93886.19;2617574;47;20164;-80
2022/06/09 04:59:06;;;;;;;8.45;5.93;;;;;;;19.50;69.96;93882.78;2617728;47;20180;-80
2022/06/09 05:01:34;;;;;;;10.60;6.67;;;;;;;19.42;73.36;93902.94;2617578;54;20168;-82
2022/06/09 05:04:04;;;;;;;8.10;5.97;;;;;;;19.32;72.79;93900.22;2617648;54;20204;-82
2022/06/09 05:06:35;;;;;;;11.55;6.57;;;;;;;19.49;69.96;93882.06;2617685;54;20175;-81
2022/06/09 05:09:04;;;;;;;6.25;5.22;;;;;;;19.76;69.20;93896.06;2617768;54;20157;-82
2022/06/09 05:11:32;;;;;;;7.07;5.93;;;;;;;19.74;71.68;93890.34;2617312;47;20710;-81
2022/06/09 05:14:01;;;;;;;7.38;5.85;;;;;;;19.69;70.48;93855.19;2617620;47;20164;-82
2022/06/09 05:16:30;;;;;;;7.23;5.63;;;;;;;19.82;70.60;93870.81;2617159;54;20187;-82
2022/06/09 05:18:58;;;;;;;8.48;6.40;;;;;;;19.82;69.63;93885.16;2617566;54;20172;-82
2022/06/09 05:21:27;;;;;;;8.55;5.95;;;;;;;18.98;73.09;93844.69;2616885;47;20161;-82
2022/06/09 05:23:58;;;;;;;7.20;6.10;;;;;;;19.29;72.96;93864.38;2617316;54;20177;-82
2022/06/09 05:26:26;;;;;;;7.47;6.40;;;;;;;19.13;72.92;93853.84;2616946;54;20181;-82
2022/06/09 05:28:55;;;;;;;9.43;7.18;;;;;;;19.14;70.56;93884.66;2617538;47;20688;-82
2022/06/09 05:31:24;;;;;;;11.30;7.97;;;;;;;18.04;74.24;93867.16;2617236;54;20165;-82
2022/06/09 05:33:53;;;;;;;9.97;6.43;;;;;;;18.05;77.15;93857.09;2617328;47;20195;-82
2022/06/09 05:36:22;;;;;;;8.23;7.07;;;;;;;18.42;76.65;93881.13;2617050;47;20207;-83
2022/06/09 05:46:57;;;;;;;7.80;6.93;;;;;;;18.83;76.38;93886.47;2617690;47;20141;-81
2022/06/09 05:49:25;;;;;;;7.80;5.90;;;;;;;18.76;71.40;93888.69;2617315;47;20160;-81
2022/06/09 05:51:54;;;;;;;9.90;7.33;;;;;;;19.03;73.23;93894.13;2617669;54;20171;-80
2022/06/09 05:54:23;;;;;;;8.00;6.43;;;;;;;18.71;73.20;93829.25;2617435;54;20183;-80
2022/06/09 05:56:54;;;;;;;7.73;6.70;;;;;;;19.00;72.52;93876.22;2617699;47;20184;-82
2022/06/09 05:59:23;;;;;;;7.13;6.43;;;;;;;18.59;72.43;93884.56;2617648;47;20157;-82
2022/06/09 06:01:52;;;;;;;9.83;7.37;;;;;;;18.38;76.39;93894.78;2617833;47;20149;-82
2022/06/09 06:04:21;;;;;;;11.00;7.47;;;;;;;18.45;73.72;93885.38;2617611;54;20300;-82
2022/06/09 06:06:49;;;;;;;9.77;8.03;;;;;;;18.31;73.86;93871.19;2617563;47;20168;-80
2022/06/09 06:09:21;;;;;;;7.90;6.17;;;;;;;18.96;74.31;93864.09;2617207;54;20141;-80
2022/06/09 06:11:50;;;;;;;6.10;5.50;;;;;;;19.33;72.66;93838.47;2617681;54;20153;-82
2022/06/09 06:14:23;;;;;;;6.80;6.10;;;;;;;19.59;70.54;93828.78;2617323;54;20171;-82
2022/06/09 06:16:53;;;;;;;10.45;5.55;;;;;;;19.88;66.43;93885.09;2617899;54;20153;-82
2022/06/09 06:19:23;;;;;;;7.17;6.57;;;;;;;19.51;69.54;93875.59;2617799;54;20189;-82
2022/06/09 06:21:53;;;;;;;6.20;5.57;;;;;;;18.82;70.11;93856.38;2618118;54;20156;-82
2022/06/09 06:24:24;;;;;;;5.80;5.25;;;;;;;19.41;71.99;93870.66;2617760;54;20223;-82
2022/06/09 06:26:53;;;;;;;7.10;6.03;;;;;;;19.80;71.78;93867.97;2618063;54;20187;-81
2022/06/09 06:29:27;;;;;;;5.77;5.17;;;;;;;19.96;70.12;93860.53;2618195;54;20706;-81
2022/06/09 06:31:56;;;;;;;5.30;4.88;;;;;;;19.73;67.38;93866.63;2617750;47;20291;-79
2022/06/09 06:34:25;;;;;;;6.20;5.70;;;;;;;19.52;67.40;93874.84;2617915;54;20168;-80
2022/06/09 06:36:54;;;;;;;5.73;5.33;;;;;;;19.91;68.78;93877.16;2617738;47;20164;-82
2022/06/09 06:39:22;;;;;;;5.75;5.25;;;;;;;20.13;66.96;93855.94;2618015;47;20149;-82
2022/06/09 06:41:51;;;;;;;5.38;4.80;;;;;;;19.87;64.29;93843.44;2617626;47;20211;-82
2022/06/09 06:44:19;;;;;;;5.45;4.97;;;;;;;20.42;64.97;93828.16;2618061;54;20179;-80
2022/06/09 06:46:58;;;;;;;5.88;5.35;;;;;;;20.60;64.18;93826.41;2612988;54;20173;-80
2022/06/09 06:49:26;;;;;;;9.98;5.25;;;;;;;20.74;63.14;93789.44;2616100;54;20145;-80
2022/06/09 06:51:55;;;;;;;4.22;3.70;;;;;;;21.44;63.22;93840.53;2618080;54;20156;-82
2022/06/09 06:54:24;;;;;;;4.85;4.45;;;;;;;21.57;62.70;93835.91;2613966;47;20203;-82
2022/06/09 06:57:08;;;;;;;4.82;4.32;;;;;;;21.76;62.34;93825.38;2612479;47;20161;-85
2022/06/09 06:59:36;;;;;;;6.40;5.55;;;;;;;21.68;61.18;93814.03;2617503;54;20164;-79
2022/06/09 07:02:08;;;;;;;5.13;4.60;;;;;;;22.02;59.52;93850.00;2617879;47;20192;-78
2022/06/09 07:04:37;;;;;;;5.18;4.68;;;;;;;21.18;60.22;93799.28;2615227;47;20227;-80
2022/06/09 07:07:06;;;;;;;6.25;5.75;;;;;;;21.28;60.28;93807.03;2614223;54;20168;-84
2022/06/09 07:09:35;;;;;;;5.13;4.68;;;;;;;21.30;61.50;93824.25;2615605;47;20211;-86
2022/06/09 07:12:04;;;;;;;6.57;5.82;;;;;;;21.02;60.16;93860.09;2618276;47;20164;-81
2022/06/09 07:14:33;;;;;;;5.00;4.57;;;;;;;21.49;61.13;93807.97;2617057;54;20171;-79
2022/06/09 07:17:03;;;;;;;4.82;4.35;;;;;;;21.92;59.52;93833.63;2617310;54;20157;-82
2022/06/09 07:19:34;;;;;;;3.75;3.45;;;;;;;21.91;60.95;93802.69;2617714;47;20185;-83
2022/06/09 07:22:03;;;;;;;5.40;4.90;;;;;;;22.23;59.83;93842.28;2614714;47;20877;-80
2022/06/09 07:24:32;;;;;;;6.47;4.28;;;;;;;22.19;60.24;93801.28;2615683;39;20808;-83
2022/06/09 07:27:00;;;;;;;4.25;3.92;;;;;;;22.85;57.11;93850.06;2616616;47;20196;-81
2022/06/09 07:29:29;;;;;;;4.72;4.32;;;;;;;22.65;55.77;93834.69;2615478;47;20202;-81
2022/06/09 07:32:04;;;;;;;5.07;4.68;;;;;;;21.88;57.98;93851.00;2615987;47;20191;-82
2022/06/09 07:34:36;;;;;;;8.95;5.40;;;;;;;22.13;57.73;93839.66;2617132;47;20157;-83
2022/06/09 07:37:09;;;;;;;4.53;4.10;;;;;;;22.10;58.76;93800.09;2618121;54;20203;-84
2022/06/09 07:40:18;;;;;;;5.05;4.70;;;;;;;20.34;59.58;93675.88;2618694;54;20289;-82
2022/06/09 07:42:49;;;;;;;5.40;4.78;;;;;;;20.79;60.34;93635.34;2618704;54;20168;-83
2022/06/09 07:51:51;;;;;;;6.40;4.47;;;;;;;21.49;58.89;93776.28;2618092;47;20122;-87
2022/06/09 07:54:20;;;;;;;5.80;5.30;;;;;;;21.44;57.31;93713.78;2618520;54;20156;-82
2022/06/09 07:56:49;;;;;;;4.97;4.55;;;;;;;20.40;58.79;93654.91;2618313;54;20164;-83
2022/06/09 08:02:19;;;;;;;;;;;;;;;;;;;;;
2022/06/09 08:05:19;;;;;;;4.90;4.55;;;;;;;21.30;58.28;93587.41;2616922;47;20160;-87
2022/06/09 08:07:50;;;;;;;6.00;4.18;;;;;;;23.31;56.20;93799.63;2617947;54;20152;-80
2022/06/09 08:10:23;;;;;;;4.90;4.60;;;;;;;23.19;56.01;93814.44;2617781;54;20203;-77
2022/06/09 08:12:55;;;;;;;4.30;4.00;;;;;;;23.11;56.23;93796.63;2618172;54;20165;-78
2022/06/09 08:15:24;;;;;;;4.60;4.15;;;;;;;23.30;56.03;93759.97;2617261;47;20288;-81
2022/06/09 08:17:53;;;;;;;6.05;5.43;;;;;;;22.26;58.60;93808.31;2618605;39;20587;-79
2022/06/09 08:20:23;;;;;;;4.72;4.13;;;;;;;23.08;57.86;93815.50;2617748;47;20242;-79
2022/06/09 08:22:54;;;;;;;4.93;4.53;;;;;;;23.78;55.53;93815.56;2618955;39;20573;-79
2022/06/09 08:25:24;;;;;;;4.60;4.25;;;;;;;23.71;54.83;93770.97;2615659;47;20267;-84
2022/06/09 08:27:52;;;;;;;4.35;4.05;;;;;;;23.97;54.62;93757.84;2617180;54;20452;-83
2022/06/09 08:30:40;;;;;;;4.63;4.22;;;;;;;23.95;53.63;93807.78;2614478;54;20181;-88
2022/06/09 08:36:04;;;;;;;5.05;4.60;;;;;;;23.36;52.36;93684.66;2618546;47;20233;-85
2022/06/09 08:38:46;;;;;;;5.07;4.70;;;;;;;24.53;53.20;93813.13;2618238;54;20160;-83
2022/06/09 08:44:31;;;;;;;4.57;4.03;;;;;;;23.12;53.34;93611.03;2617646;47;20176;-84
2022/06/09 08:47:28;;;;;;;4.13;3.88;;;;;;;24.65;51.86;93801.13;2621858;54;20838;-90
2022/06/09 08:50:08;;;;;;;8.85;4.95;;;;;;;24.51;52.88;93737.94;2618363;54;20155;-82
2022/06/09 08:52:47;;;;;;;5.53;4.85;;;;;;;24.24;51.70;93761.28;2618420;54;20152;-80
2022/06/09 08:55:27;;;;;;;5.72;4.65;;;;;;;24.19;51.00;93768.66;2618456;54;20160;-79
2022/06/09 08:58:01;;;;;;;3.88;3.58;;;;;;;24.52;53.05;93794.34;2618165;47;20161;-80
2022/06/09 09:00:36;;;;;;;4.20;3.90;;;;;;;24.04;52.30;93777.13;2614598;54;20171;-80
2022/06/09 09:03:09;;;;;;;5.28;4.47;;;;;;;23.13;55.13;93787.91;2617830;54;20164;-81
2022/06/09 09:05:43;;;;;;;5.75;4.30;;;;;;;22.54;56.85;93778.03;2617559;54;20293;-80
2022/06/09 09:08:13;;;;;;;5.18;4.78;;;;;;;21.54;57.21;93748.81;2618000;47;20169;-81
2022/06/09 09:10:52;;;;;;;4.57;4.18;;;;;;;21.72;57.72;93776.50;2618573;39;20556;-79
2022/06/09 09:13:42;;;;;;;4.03;3.72;;;;;;;22.06;58.29;93740.34;2617271;54;20149;-79
2022/06/09 09:16:15;;;;;;;4.70;4.30;;;;;;;22.73;54.15;93749.34;2618497;39;20573;-84
2022/06/09 09:18:52;;;;;;;5.25;4.05;;;;;;;23.22;53.77;93763.09;2617586;47;20153;-85
2022/06/09 09:21:43;;;;;;;7.47;4.50;;;;;;;23.31;52.28;93706.47;2618173;54;20427;-86
2022/06/09 09:24:23;;;;;;;5.80;3.95;;;;;;;24.16;51.21;93760.84;2617837;54;20160;-85
2022/06/09 09:27:04;;;;;;;4.07;3.67;;;;;;;23.45;50.80;93685.81;2616733;54;20211;-81
2022/06/09 09:29:41;;;;;;;3.15;2.90;;;;;;;23.92;51.14;93692.94;2617375;54;20165;-80
2022/06/09 09:32:15;;;;;;;4.85;3.67;;;;;;;24.41;50.20;93750.56;2616939;54;20180;-81
2022/06/09 09:38:08;;;;;;;4.05;3.63;;;;;;;23.61;50.01;93574.78;2617245;54;20179;-82
2022/06/09 09:41:04;;;;;;;4.43;3.67;;;;;;;23.98;49.52;93591.53;2616224;47;21425;-83
2022/06/09 09:43:42;;;;;;;3.45;3.15;;;;;;;25.17;49.75;93742.75;2616529;54;20263;-81
2022/06/09 09:46:23;;;;;;;3.95;3.65;;;;;;;25.06;48.21;93733.06;2617816;54;20175;-81
2022/06/09 09:48:52;;;;;;;4.03;3.72;;;;;;;25.21;47.83;93710.75;2617318;54;20172;-83
2022/06/09 09:51:35;;;;;;;3.72;3.42;;;;;;;25.28;48.29;93703.22;2615941;54;21020;-83
2022/06/09 09:54:11;;;;;;;3.92;3.63;;;;;;;25.17;47.82;93716.69;2616227;47;20173;-83
2022/06/09 09:56:41;;;;;;;4.32;3.92;;;;;;;24.36;49.27;93661.78;2616383;47;20171;-83
2022/06/09 09:59:27;;;;;;;4.97;4.57;;;;;;;23.50;53.36;93716.00;2617642;54;20144;-83
2022/06/09 10:10:17;;;;;;;3.78;3.50;;;;;;;25.08;46.72;93695.31;2616420;54;20149;-85
2022/06/09 10:12:47;;;;;;;4.43;3.50;;;;;;;24.72;46.70;93608.34;2614829;54;20172;-83
2022/06/09 10:15:22;;;;;;;5.05;3.78;;;;;;;25.44;46.02;93684.47;2614816;47;20181;-84
2022/06/09 10:18:02;;;;;;;4.65;3.45;;;;;;;24.53;46.38;93679.25;2614395;54;20175;-83
2022/06/09 10:20:38;;;;;;;3.00;2.78;;;;;;;24.33;46.41;93703.84;2616372;54;20180;-83
2022/06/09 10:23:28;;;;;;;3.38;2.65;;;;;;;24.39;46.08;93617.53;2616998;54;20175;-83
2022/06/09 10:26:02;;;;;;;3.10;2.90;;;;;;;24.96;47.91;93653.03;2616849;54;20165;-84
2022/06/09 10:28:39;;;;;;;3.15;2.92;;;;;;;25.63;45.04;93688.09;2617302;39;20799;-84
2022/06/09 10:34:50;;;;;;;2.00;1.90;;;;;;;24.60;45.20;93660.88;2616220;47;20176;-79
2022/06/09 10:37:25;;;;;;;2.92;2.72;;;;;;;24.63;46.95;93687.56;2616993;47;20679;-82
2022/06/09 10:40:03;;;;;;;3.20;3.00;;;;;;;24.79;44.15;93673.19;2616207;47;20256;-82
2022/06/09 10:42:37;;;;;;;3.97;2.47;;;;;;;24.65;42.91;93679.53;2614807;54;20176;-82
2022/06/09 10:45:26;;;;;;;2.17;2.08;;;;;;;25.04;44.02;93681.69;2616482;39;20647;-82
2022/06/09 10:56:49;;;;;;;2.42;2.28;;;;;;;25.88;43.38;93655.88;2616365;47;20149;-79
2022/06/09 10:59:24;;;;;;;2.38;2.17;;;;;;;26.15;43.94;93676.47;2617308;47;20690;-80
2022/06/09 11:05:07;;;;;;;3.03;2.83;;;;;;;24.84;44.35;93566.63;2617403;47;20172;-80
2022/06/09 11:07:52;;;;;;;2.58;2.47;;;;;;;25.02;45.20;93631.81;2616999;54;20173;-81
2022/06/09 11:10:30;;;;;;;2.95;2.75;;;;;;;24.92;44.92;93632.19;2617526;39;20553;-81
2022/06/09 11:13:19;;;;;;;2.58;2.38;;;;;;;25.52;42.97;93634.19;2617438;39;20578;-84
2022/06/09 11:15:54;;;;;;;2.30;2.10;;;;;;;25.07;42.87;93584.53;2617467;47;20156;-84
2022/06/09 11:18:37;;;;;;;2.92;2.80;;;;;;;25.06;43.47;93588.22;2617633;54;20160;-80
2022/06/09 11:21:19;;;;;;;2.25;2.10;;;;;;;25.03;45.43;93555.00;2617221;47;20156;-82
2022/06/09 11:24:02;;;;;;;2.83;2.63;;;;;;;25.06;44.98;93635.25;2616774;47;20188;-82
2022/06/09 11:26:54;;;;;;;5.80;2.25;;;;;;;23.67;43.76;93413.38;2617058;47;20148;-80
2022/06/09 11:29:52;;;;;;;2.80;2.60;;;;;;;25.50;44.92;93646.56;2616396;47;20206;-77
2022/06/09 11:32:27;;;;;;;2.20;2.10;;;;;;;25.73;45.36;93649.25;2616962;54;20176;-76
2022/06/09 11:35:16;;;;;;;4.28;2.47;;;;;;;25.97;42.58;93642.44;2615997;54;20137;-78
2022/06/09 11:38:02;;;;;;;3.92;2.35;;;;;;;26.30;42.71;93630.16;2616871;47;20215;-78
2022/06/09 11:40:41;;;;;;;2.63;2.15;;;;;;;26.45;44.16;93615.69;2613508;54;20157;-80
2022/06/09 11:43:30;;;;;;;1.83;1.77;;;;;;;26.91;42.07;93621.59;2615475;39;20569;-81
2022/06/09 11:46:03;;;;;;;2.50;2.40;;;;;;;26.87;41.40;93607.94;2615571;47;20161;-81
2022/06/09 11:48:38;;;;;;;2.72;2.55;;;;;;;26.85;39.54;93598.63;2617128;54;20149;-80
2022/06/09 11:51:08;;;;;;;2.28;2.17;;;;;;;26.76;39.28;93607.00;2616452;47;20164;-81
2022/06/09 11:53:43;;;;;;;2.40;2.20;;;;;;;26.58;40.95;93569.38;2616900;47;20268;-80
2022/06/09 11:56:43;;;;;;;6.18;2.20;;;;;;;26.69;39.37;93605.88;2613882;54;20183;-79
2022/06/09 11:59:24;;;;;;;2.40;2.15;;;;;;;26.36;41.07;93603.75;2614332;47;20672;-80
2022/06/09 12:02:12;;;;;;;2.35;2.25;;;;;;;26.49;41.81;93612.63;2616157;47;20173;-82
2022/06/09 12:05:15;;;;;;;2.85;2.65;;;;;;;25.82;43.91;93607.53;2617025;54;20208;-81
2022/06/09 12:08:08;;;;;;;2.42;2.33;;;;;;;25.28;45.26;93563.44;2616610;47;20153;-79
2022/06/09 12:10:56;;;;;;;2.92;2.40;;;;;;;24.62;47.69;93590.63;2616274;31;20612;-79
2022/06/09 12:13:31;;;;;;;2.28;2.00;;;;;;;24.64;46.22;93594.16;2616619;47;20153;-79
2022/06/09 12:16:02;;;;;;;2.70;2.50;;;;;;;24.70;45.61;93582.34;2616779;54;20156;-78
2022/06/09 12:18:42;;;;;;;4.00;2.28;;;;;;;25.22;44.62;93589.75;2616125;54;20177;-77
2022/06/09 12:21:18;;;;;;;4.22;2.20;;;;;;;25.70;42.32;93592.84;2616695;47;20159;-80
2022/06/09 12:24:24;;;;;;;2.28;2.08;;;;;;;26.13;41.10;93600.41;2617441;39;20628;-80
2022/06/09 12:26:56;;;;;;;2.38;2.25;;;;;;;26.25;41.13;93567.94;2616975;46;20683;-80
2022/06/09 12:29:46;;;;;;;2.22;2.13;;;;;;;26.25;40.47;93570.13;2617191;47;20665;-80
2022/06/09 12:32:32;;;;;;;1.98;1.88;;;;;;;26.12;42.16;93591.00;2616893;54;20179;-80
2022/06/09 12:35:02;;;;;;;2.30;2.00;;;;;;;26.37;41.71;93601.56;2616854;54;20141;-80
2022/06/09 12:37:34;;;;;;;5.05;2.00;;;;;;;26.03;45.23;93569.63;2617060;39;20546;-80
2022/06/09 12:40:08;;;;;;;2.20;2.08;;;;;;;26.24;40.56;93600.69;2616665;54;20160;-80
2022/06/09 12:42:47;;;;;;;2.28;2.17;;;;;;;26.29;43.02;93540.97;2616577;47;20172;-81
2022/06/09 12:45:24;;;;;;;2.00;1.90;;;;;;;26.70;41.64;93604.38;2616720;54;20148;-79
2022/06/09 12:47:59;;;;;;;1.63;1.52;;;;;;;26.02;42.72;93579.84;2616463;47;20149;-80
2022/06/09 12:50:48;;;;;;;1.90;1.80;;;;;;;25.92;44.40;93608.59;2616670;54;20183;-80
2022/06/09 12:53:25;;;;;;;3.05;1.95;;;;;;;25.44;43.93;93586.63;2615960;54;20165;-80
2022/06/09 12:55:57;;;;;;;2.15;1.98;;;;;;;25.31;45.82;93579.94;2616604;47;20754;-80